Terminal Aerodrome Forecast
Issued by NWS Cleveland, OH

Home | Current Version | Previous Version | Text Only | Print | Product List | Glossary On
Versions: 1 2 3 4 5 6 7 8 9 10 11 12 13 14 15 16 17 18 19 20 21 22 23 24 25 26 27 28
000
FTUS41 KCLE 271700
TAFCLE
TAF
KCLE 271734Z 2718/2824 22012G18KT P6SM VCSH BKN050 OVC070
      TEMPO 2719/2722 6SM -SHRA BR BKN030
     FM272200 22012G18KT 6SM BR VCSH SCT020 OVC035
     FM280000 22012KT 4SM -RA BR SCT015 OVC030
      TEMPO 2802/2804 3SM -RA BR OVC015
     FM280400 24010KT 4SM -RA BKN009 OVC015
     FM280800 30010KT 5SM -SHRA BR SCT007 OVC012
     FM281300 31010KT 6SM BR VCSH OVC018
     FM281800 33010KT P6SM SCT012 OVC040=

USA.gov is the U.S. government's official web portal to all federal, state and local government web resources and services.